Distributions Which Depend on perl
Release Uploaded
Google-Cloud-Storage-V2-0.0327 Jul 2026 20:22:35 UTC Google Cloud Storage V2 API Client 27 Jul 2026 20:22:35 UTC
Google-Cloud-Spanner-V1-0.0327 Jul 2026 20:22:24 UTC Client library for Google Cloud Services 27 Jul 2026 20:22:24 UTC
Google-Cloud-Metastore-V1-0.0327 Jul 2026 20:21:06 UTC Google Cloud Dataproc Metastore V1 API Client 27 Jul 2026 20:21:06 UTC
Google-Cloud-Dataproc-V1-0.0327 Jul 2026 20:20:44 UTC Google Cloud Dataproc V1 API Client 27 Jul 2026 20:20:44 UTC
Google-Cloud-Dataplex-V1-0.0327 Jul 2026 20:20:32 UTC Google Cloud Dataplex V1 API Client 27 Jul 2026 20:20:32 UTC
Google-Cloud-Compute-V1-0.0327 Jul 2026 20:19:59 UTC Google Cloud Compute Engine V1 API Client 27 Jul 2026 20:19:59 UTC
Google-Cloud-Composer-V1-0.0327 Jul 2026 20:19:48 UTC Google Cloud Composer V1 API Client 27 Jul 2026 20:19:48 UTC
Google-Cloud-Build-V1-0.0327 Jul 2026 20:19:36 UTC Google Cloud Build V1 API Client 27 Jul 2026 20:19:36 UTC
Google-Api-Common-0.0327 Jul 2026 20:18:52 UTC Auto-generated Protocol Buffers schema container 27 Jul 2026 20:18:52 UTC
Google-Ai-Generativelanguage-V1-0.0327 Jul 2026 20:18:40 UTC Auto-generated client library for Google Cloud Services 27 Jul 2026 20:18:40 UTC
DBD-Spanner-0.0127 Jul 2026 20:18:29 UTC Perl DBI Driver for Google Cloud Spanner with Async Support 27 Jul 2026 20:18:29 UTC
DBD-BigQuery-0.0127 Jul 2026 20:18:18 UTC Perl DBI Driver for Google Cloud BigQuery with Async Support 27 Jul 2026 20:18:18 UTC
WWW-Mechanize-Shell-0.6327 Jul 2026 17:49:14 UTC An interactive shell for WWW::Mechanize 27 Jul 2026 17:49:14 UTC
Plack-App-Prerender-v0.3.027 Jul 2026 17:10:55 UTC a simple prerendering proxy for Plack 27 Jul 2026 17:10:55 UTC
Redis-Fast-0.3927 Jul 2026 14:03:38 UTC Perl binding for Redis database 27 Jul 2026 14:03:38 UTC
Matplotlib-Simple-0.31127 Jul 2026 12:46:03 UTC Access Matplotlib from Perl; providing consistent user interface between different plot types 27 Jul 2026 12:46:03 UTC
App-Regather-0.87.027 Jul 2026 10:28:27 UTC regather - LDAP syncrepl consumer script to perform actions desired on syncrepl event 27 Jul 2026 10:28:27 UTC
Net-SNMP-QueryEngine-AnyEvent-v1.2.027 Jul 2026 08:32:14 UTC multiplexing SNMP query engine client using AnyEvent 27 Jul 2026 08:32:14 UTC
Hazy-0.0627 Jul 2026 05:54:42 UTC A simple, minimalistic CSS framework. 27 Jul 2026 05:54:42 UTC
Crayon-1.0627 Jul 2026 05:54:31 UTC dedupe, minify and extend CSS 27 Jul 2026 05:54:31 UTC
CGI-BrowserDetect-1.0226 Jul 2026 21:28:21 UTC Browser Detect 26 Jul 2026 21:28:21 UTC
Coerce-Types-Standard-0.00001026 Jul 2026 19:36:21 UTC Coercing 26 Jul 2026 19:36:21 UTC
Hash-Typed-0.0726 Jul 2026 18:03:27 UTC Ordered typed tied hashes. 26 Jul 2026 18:03:27 UTC
Dancer2-Plugin-Feed-1.26207026 Jul 2026 16:25:13 UTC Easy to generate feed (RSS or atom) for Dancer2 applications. 26 Jul 2026 16:25:13 UTC
HTTP-XSHeaders-1.00010026 Jul 2026 15:42:04 UTC Fast XS Header library, replacing HTTP::Headers and HTTP::Headers::Fast. 26 Jul 2026 15:42:04 UTC
Terse-Runtime-0.0426 Jul 2026 08:48:31 UTC Terse Runtime 26 Jul 2026 08:48:31 UTC
Terse-Config-0.0526 Jul 2026 08:47:05 UTC Terse configs 26 Jul 2026 08:47:05 UTC
Terse-Plugin-UA-0.0426 Jul 2026 08:44:18 UTC Terse LWP::UserAgent plugin. 26 Jul 2026 08:44:18 UTC
Terse-Plugin-Glitch-0.0526 Jul 2026 08:42:41 UTC The great new Terse::Plugin::Glitch! 26 Jul 2026 08:42:41 UTC
Terse-Plugin-DBI-0.0526 Jul 2026 08:41:14 UTC DBI in Terse 26 Jul 2026 08:41:14 UTC
Terse-Plugin-CHI-0.0326 Jul 2026 08:38:28 UTC Terse response cache 26 Jul 2026 08:38:28 UTC
Terse-Es-0.0426 Jul 2026 08:35:42 UTC Terse Elasticsearch. 26 Jul 2026 08:35:42 UTC
Terse-Static-0.1326 Jul 2026 08:32:55 UTC Serve static resources 26 Jul 2026 08:32:55 UTC
Terse-Headers-0.0326 Jul 2026 08:30:00 UTC Terse headers 26 Jul 2026 08:30:00 UTC
Terse-View-TT-0.0426 Jul 2026 08:27:04 UTC Terse Template Toolkit View 26 Jul 2026 08:27:04 UTC
Terse-0.2826 Jul 2026 08:25:26 UTC Lightweight Web Framework 26 Jul 2026 08:25:26 UTC
Chandra-Same-Boy-0.0226 Jul 2026 08:10:06 UTC play Game Boy / Game Boy Color games in a Chandra window 26 Jul 2026 08:10:06 UTC
Same-Boy-0.0226 Jul 2026 08:00:53 UTC Game Boy and Game Boy Color emulator (SameBoy Core) for Perl 26 Jul 2026 08:00:53 UTC
mb-JSON-0.0726 Jul 2026 06:08:15 UTC JSON encode/decode for multibyte (UTF-8) strings 26 Jul 2026 06:08:15 UTC
HTTP-Cookies-6.1226 Jul 2026 02:35:31 UTC HTTP cookie jars 26 Jul 2026 02:35:31 UTC
Sah-SchemaBundle-UUID-0.00126 Jul 2026 00:05:21 UTC Sah schemas related to UUID/GUID 26 Jul 2026 00:05:21 UTC
Module-Pluggable-6.425 Jul 2026 22:09:11 UTC automatically give your module the ability to have plugins 25 Jul 2026 22:09:11 UTC
LibUI-v1.0.025 Jul 2026 21:33:47 UTC Simple, Portable, Native GUI Library 25 Jul 2026 21:33:47 UTC
DateTime-Format-Genealogy-0.1325 Jul 2026 21:31:00 UTC Create a DateTime object from a genealogy date string 25 Jul 2026 21:31:00 UTC
Net-BitTorrent-v2.1.125 Jul 2026 20:42:57 UTC Pure Perl BitTorrent Client 25 Jul 2026 20:42:57 UTC
Plerd-2.00025 Jul 2026 16:06:58 UTC Ultralight blogging with Markdown and Dropbox 25 Jul 2026 16:06:58 UTC
Chandra-0.3025 Jul 2026 13:31:33 UTC Perl bindings to webview-c for cross-platform GUIs 25 Jul 2026 13:31:33 UTC
ClearPress-v2026.7.2525 Jul 2026 08:55:00 UTC ClearPress - Simple, fresh & fruity MVC framework 25 Jul 2026 08:55:00 UTC
Wildling-2.0.725 Jul 2026 01:59:50 UTC Pattern based string generator library and CLI 25 Jul 2026 01:59:50 UTC
Layout-Flex-0.0524 Jul 2026 21:14:14 UTC CSS flexbox layout engine with wrap, gap, margin, and content driven sizing 24 Jul 2026 21:14:14 UTC
5,000 results (0.01 seconds)